createdAt,value
2023-04-09T00:00:10.319Z,13.43
2023-04-09T00:02:40.244Z,13.45
2023-04-09T00:05:07.524Z,13.95
2023-04-09T00:07:34.107Z,14.32
2023-04-09T00:10:00.588Z,14.02
2023-04-09T00:12:27.310Z,12.90
2023-04-09T00:14:53.792Z,10.82
2023-04-09T00:17:20.291Z,12.32
2023-04-09T00:19:46.771Z,12.50
2023-04-09T00:22:13.225Z,12.30
2023-04-09T00:24:39.669Z,13.20
2023-04-09T00:27:06.111Z,11.43
2023-04-09T00:29:32.601Z,10.75
2023-04-09T00:31:59.150Z,11.80
2023-04-09T00:34:25.617Z,11.48
2023-04-09T00:36:52.027Z,12.40
2023-04-09T00:39:18.435Z,11.80
2023-04-09T00:41:44.862Z,12.38
2023-04-09T00:44:11.472Z,11.95
2023-04-09T00:46:38.136Z,11.13
2023-04-09T00:49:05.368Z,12.80
2023-04-09T00:51:31.829Z,12.82
2023-04-09T00:53:58.428Z,10.15
2023-04-09T00:56:25.611Z,11.27
2023-04-09T00:58:52.232Z,11.95
2023-04-09T01:01:19.020Z,12.02
2023-04-09T01:03:45.884Z,11.18
2023-04-09T01:06:16.934Z,12.15
2023-04-09T01:08:55.358Z,12.13
2023-04-09T01:11:24.833Z,12.00
2023-04-09T01:13:52.625Z,10.85
2023-04-09T01:16:21.091Z,12.05
2023-04-09T01:18:52.605Z,12.02
2023-04-09T01:21:20.763Z,11.82
2023-04-09T01:23:54.701Z,12.70
2023-04-09T01:26:29.622Z,11.57
2023-04-09T01:28:56.947Z,12.65
2023-04-09T01:31:34.149Z,11.70
2023-04-09T01:34:01.143Z,11.73
2023-04-09T01:36:28.473Z,12.52
2023-04-09T01:41:22.319Z,11.93
2023-04-09T01:43:49.947Z,11.15
2023-04-09T01:46:17.749Z,11.40
2023-04-09T01:48:44.706Z,11.25
2023-04-09T01:51:14.101Z,11.52
2023-04-09T01:53:41.559Z,11.38
2023-04-09T01:56:08.887Z,12.38
2023-04-09T01:58:36.068Z,12.50
2023-04-09T02:01:08.958Z,11.27
2023-04-09T02:03:41.032Z,11.52
2023-04-09T02:06:13.668Z,11.55
2023-04-09T02:08:41.754Z,12.15
2023-04-09T02:11:10.678Z,11.15
2023-04-09T02:13:37.834Z,11.55
2023-04-09T02:16:04.596Z,10.95
2023-04-09T02:18:31.403Z,11.13
2023-04-09T02:20:58.622Z,11.45
2023-04-09T02:23:25.546Z,11.88
2023-04-09T02:25:52.585Z,11.43
2023-04-09T02:28:19.104Z,11.02
2023-04-09T02:30:45.602Z,11.27
2023-04-09T02:33:12.024Z,10.85
2023-04-09T02:35:38.485Z,10.88
2023-04-09T02:38:04.938Z,12.00
2023-04-09T02:40:31.363Z,10.90
2023-04-09T02:42:57.762Z,11.45
2023-04-09T02:45:24.143Z,10.93
2023-04-09T02:47:50.713Z,11.65
2023-04-09T02:50:17.278Z,10.38
2023-04-09T02:52:48.631Z,11.57
2023-04-09T02:55:15.427Z,11.48
2023-04-09T02:57:41.941Z,11.57
2023-04-09T03:00:08.757Z,11.27
2023-04-09T03:02:35.289Z,11.43
2023-04-09T03:05:01.933Z,11.00
2023-04-09T03:07:28.460Z,11.65
2023-04-09T03:09:55.078Z,12.00
2023-04-09T03:12:21.504Z,12.38
2023-04-09T03:14:48.346Z,11.20
2023-04-09T03:17:14.758Z,11.90
2023-04-09T03:19:41.233Z,11.07
2023-04-09T03:22:08.006Z,12.00
2023-04-09T03:24:34.979Z,11.10
2023-04-09T03:27:04.762Z,11.32
2023-04-09T03:31:59.494Z,10.98
2023-04-09T03:34:26.366Z,11.10
2023-04-09T03:36:55.903Z,11.25
2023-04-09T03:39:26.006Z,10.82
2023-04-09T03:41:53.072Z,11.40
2023-04-09T03:44:19.472Z,11.30
2023-04-09T03:47:15.366Z,11.23
2023-04-09T03:49:41.965Z,11.00
2023-04-09T03:52:21.941Z,10.73
2023-04-09T03:54:56.945Z,12.02
2023-04-09T03:57:25.376Z,10.55
2023-04-09T03:59:53.563Z,10.73
2023-04-09T04:02:22.173Z,11.07
2023-04-09T04:04:57.301Z,9.98
2023-04-09T04:07:27.643Z,11.48
2023-04-09T04:10:01.506Z,9.85
2023-04-09T04:12:28.319Z,9.77
2023-04-09T04:15:03.683Z,10.10
2023-04-09T04:17:37.882Z,10.80
2023-04-09T04:20:11.397Z,11.70
2023-04-09T04:22:50.415Z,10.30
2023-04-09T04:25:17.156Z,9.98
2023-04-09T04:30:12.303Z,9.77
2023-04-09T04:32:52.313Z,9.35
2023-04-09T04:35:19.085Z,10.75
2023-04-09T04:40:13.162Z,10.02
2023-04-09T04:42:42.282Z,10.43
2023-04-09T04:45:13.401Z,10.52
2023-04-09T04:47:47.377Z,10.15
2023-04-09T04:50:14.343Z,10.27
2023-04-09T04:52:53.498Z,10.27
2023-04-09T04:55:22.490Z,11.75
2023-04-09T04:57:50.613Z,10.10
2023-04-09T05:00:18.795Z,11.82
2023-04-09T05:02:46.139Z,11.18
2023-04-09T05:05:19.599Z,10.43
2023-04-09T05:07:54.874Z,10.68
2023-04-09T05:10:21.877Z,10.13
2023-04-09T05:12:48.511Z,10.27
2023-04-09T05:15:23.419Z,10.63
2023-04-09T05:17:50.405Z,9.52
2023-04-09T05:20:17.400Z,10.85
2023-04-09T05:22:55.525Z,10.93
2023-04-09T05:25:28.047Z,12.45
2023-04-09T05:27:55.901Z,12.32
2023-04-09T05:30:24.516Z,10.98
2023-04-09T05:32:51.371Z,11.55
2023-04-09T05:35:17.867Z,10.82
2023-04-09T05:37:44.945Z,12.23
2023-04-09T05:40:11.854Z,12.02
2023-04-09T05:42:38.259Z,13.57
2023-04-09T05:45:11.249Z,12.48
2023-04-09T05:47:44.389Z,11.75
2023-04-09T05:50:16.873Z,12.80
2023-04-09T05:52:43.293Z,12.90
2023-04-09T05:55:11.932Z,11.57
2023-04-09T05:57:53.133Z,13.23
2023-04-09T06:00:19.917Z,13.32
2023-04-09T06:02:48.280Z,15.25
2023-04-09T06:05:15.085Z,14.13
2023-04-09T06:07:41.784Z,13.30
2023-04-09T06:10:08.534Z,12.45
2023-04-09T06:12:35.475Z,13.73
2023-04-09T06:15:04.480Z,15.40
2023-04-09T06:17:31.093Z,14.15
2023-04-09T06:19:57.626Z,12.88
2023-04-09T06:22:24.025Z,12.35
2023-04-09T06:24:50.520Z,13.38
2023-04-09T06:27:19.001Z,13.52
2023-04-09T06:29:45.448Z,12.82
2023-04-09T06:32:11.862Z,13.48
2023-04-09T06:34:38.313Z,13.07
2023-04-09T06:37:05.021Z,12.65
2023-04-09T06:39:32.973Z,12.55
2023-04-09T06:41:59.424Z,11.75
2023-04-09T06:44:38.510Z,12.75
2023-04-09T06:47:04.914Z,11.60
2023-04-09T06:49:31.386Z,11.43
2023-04-09T06:51:57.981Z,10.88
2023-04-09T06:54:24.473Z,10.55
2023-04-09T06:56:51.878Z,12.18
2023-04-09T06:59:19.624Z,12.45
2023-04-09T07:01:47.673Z,11.88
2023-04-09T07:04:14.289Z,11.80
2023-04-09T07:06:40.882Z,13.20
2023-04-09T07:09:07.565Z,12.35
2023-04-09T07:11:33.993Z,12.15
2023-04-09T07:14:00.648Z,12.50
2023-04-09T07:16:27.123Z,12.15
2023-04-09T07:18:53.565Z,11.95
2023-04-09T07:21:20.371Z,12.75
2023-04-09T07:23:46.854Z,13.02
2023-04-09T07:26:13.411Z,11.88
2023-04-09T07:28:40.512Z,14.18
2023-04-09T07:31:07.844Z,12.38
2023-04-09T07:33:34.279Z,12.50
2023-04-09T07:36:00.725Z,12.60
2023-04-09T07:38:28.806Z,12.43
2023-04-09T07:40:55.228Z,12.45
2023-04-09T07:43:22.619Z,12.43
2023-04-09T07:45:51.293Z,12.65
2023-04-09T07:48:17.985Z,12.70
2023-04-09T07:50:48.211Z,12.35
2023-04-09T07:53:14.670Z,11.90
2023-04-09T07:55:41.156Z,12.50
2023-04-09T07:58:07.742Z,11.90
2023-04-09T08:00:34.286Z,11.68
2023-04-09T08:03:02.189Z,13.45
2023-04-09T08:05:28.858Z,11.25
2023-04-09T08:07:55.287Z,11.70
2023-04-09T08:10:21.749Z,6.57
2023-04-09T08:12:48.753Z,9.52
2023-04-09T08:15:15.497Z,12.57
2023-04-09T08:17:42.136Z,12.55
2023-04-09T08:20:08.966Z,11.23
2023-04-09T08:22:35.363Z,12.73
2023-04-09T08:25:02.796Z,13.88
2023-04-09T08:27:29.644Z,12.20
2023-04-09T08:29:56.224Z,12.40
2023-04-09T08:32:22.840Z,12.15
2023-04-09T08:34:49.404Z,11.98
2023-04-09T08:37:16.619Z,13.00
2023-04-09T08:39:43.186Z,14.43
2023-04-09T08:42:12.101Z,15.70
2023-04-09T08:44:38.704Z,14.95
2023-04-09T08:47:10.096Z,12.32
2023-04-09T08:49:36.636Z,14.98
2023-04-09T08:52:03.044Z,12.05
2023-04-09T08:54:29.555Z,12.75
2023-04-09T08:56:57.549Z,10.32
2023-04-09T08:59:24.165Z,15.05
2023-04-09T09:02:06.605Z,13.93
2023-04-09T09:04:49.509Z,11.68
2023-04-09T09:07:16.563Z,13.20
2023-04-09T09:09:53.319Z,13.82
2023-04-09T09:12:34.971Z,14.02
2023-04-09T09:15:01.650Z,11.60
2023-04-09T09:17:28.382Z,17.42
2023-04-09T09:19:54.952Z,13.35
2023-04-09T09:22:21.620Z,12.88
2023-04-09T09:24:50.404Z,14.10
2023-04-09T09:27:37.036Z,13.65
2023-04-09T09:30:05.579Z,13.68
2023-04-09T09:32:35.585Z,17.02
2023-04-09T09:35:04.103Z,16.30
2023-04-09T09:37:31.118Z,16.05
2023-04-09T09:39:58.169Z,15.65
2023-04-09T09:42:24.786Z,18.17
2023-04-09T09:44:51.619Z,14.68
2023-04-09T09:47:19.193Z,12.52
2023-04-09T09:49:46.177Z,12.82
2023-04-09T09:52:12.708Z,11.23
2023-04-09T09:54:44.346Z,10.43
2023-04-09T09:57:13.643Z,10.32
2023-04-09T09:59:57.539Z,9.90
2023-04-09T10:02:24.402Z,9.77
2023-04-09T10:04:52.996Z,9.80
2023-04-09T10:07:21.767Z,9.70
2023-04-09T10:09:52.018Z,8.70
2023-04-09T10:12:19.275Z,7.75
2023-04-09T10:14:45.952Z,7.25
2023-04-09T10:17:12.728Z,6.70
2023-04-09T10:19:42.628Z,6.43
2023-04-09T10:22:11.620Z,5.60
2023-04-09T10:24:38.466Z,6.10
2023-04-09T10:27:16.784Z,6.30
2023-04-09T10:29:45.412Z,5.90
2023-04-09T10:32:12.485Z,6.32
2023-04-09T10:34:42.636Z,6.10
2023-04-09T10:37:09.989Z,5.97
2023-04-09T10:42:09.306Z,7.18
2023-04-09T10:44:38.053Z,6.72
2023-04-09T10:47:06.235Z,7.65
2023-04-09T10:49:37.019Z,7.28
2023-04-09T10:52:04.706Z,7.22
2023-04-09T10:54:34.413Z,7.13
2023-04-09T10:57:06.904Z,7.30
2023-04-09T10:59:43.426Z,7.38
2023-04-09T11:02:17.508Z,6.38
2023-04-09T11:04:50.407Z,6.45
2023-04-09T11:07:17.840Z,6.70
2023-04-09T11:12:11.561Z,6.57
2023-04-09T11:14:38.005Z,6.97
2023-04-09T11:17:05.535Z,6.60
2023-04-09T11:19:36.111Z,6.55
2023-04-09T11:22:06.921Z,7.28
2023-04-09T11:24:42.822Z,6.78
2023-04-09T11:27:09.954Z,6.32
2023-04-09T11:29:36.712Z,5.65
2023-04-09T11:32:05.267Z,5.70
2023-04-09T11:34:32.928Z,5.40
2023-04-09T11:37:02.662Z,6.13
2023-04-09T11:39:29.472Z,5.32
2023-04-09T11:41:58.017Z,6.07
2023-04-09T11:44:24.450Z,5.93
2023-04-09T11:46:51.095Z,6.07
2023-04-09T11:49:17.942Z,5.90
2023-04-09T11:51:44.552Z,6.35
2023-04-09T11:54:11.943Z,6.18
2023-04-09T11:56:38.381Z,6.22
2023-04-09T11:59:04.939Z,6.25
2023-04-09T12:01:34.863Z,6.25
2023-04-09T12:04:02.403Z,5.97
2023-04-09T12:06:30.146Z,5.70
2023-04-09T12:08:57.743Z,5.93
2023-04-09T12:11:28.277Z,6.25
2023-04-09T12:14:13.541Z,5.85
2023-04-09T12:16:44.085Z,5.65
2023-04-09T12:19:11.623Z,5.60
2023-04-09T12:24:04.441Z,5.18
2023-04-09T12:26:30.887Z,5.30
2023-04-09T12:28:57.341Z,5.03
2023-04-09T12:31:23.797Z,5.28
2023-04-09T12:33:50.397Z,5.07
2023-04-09T12:36:18.186Z,4.65
2023-04-09T12:38:45.436Z,4.65
2023-04-09T12:41:13.282Z,5.13
2023-04-09T12:43:39.917Z,4.47
2023-04-09T12:46:06.570Z,4.55
2023-04-09T12:48:33.037Z,3.88
2023-04-09T12:50:59.512Z,4.40
2023-04-09T12:53:26.925Z,4.15
2023-04-09T12:55:53.734Z,4.40
2023-04-09T12:58:20.413Z,4.20
2023-04-09T13:00:46.832Z,4.10
2023-04-09T13:03:16.509Z,3.97
2023-04-09T13:05:43.514Z,4.10
2023-04-09T13:08:10.026Z,4.00
2023-04-09T13:10:36.921Z,4.22
2023-04-09T13:13:03.540Z,3.88
2023-04-09T13:15:29.924Z,3.75
2023-04-09T13:17:56.567Z,3.80
2023-04-09T13:20:23.010Z,3.90
2023-04-09T13:22:49.469Z,3.80
2023-04-09T13:25:16.615Z,4.20
2023-04-09T13:30:09.537Z,4.65
2023-04-09T13:32:36.438Z,4.80
2023-04-09T13:35:02.937Z,5.07
2023-04-09T13:37:29.377Z,4.63
2023-04-09T13:39:55.894Z,4.72
2023-04-09T13:42:22.343Z,4.70
2023-04-09T13:44:49.248Z,4.82
2023-04-09T13:47:16.439Z,5.15
2023-04-09T13:49:43.813Z,4.60
2023-04-09T13:52:11.171Z,4.80
2023-04-09T13:54:37.832Z,4.47
2023-04-09T13:57:04.268Z,4.80
2023-04-09T13:59:30.927Z,4.80
2023-04-09T14:01:57.825Z,4.63
2023-04-09T14:04:24.686Z,4.65
2023-04-09T14:06:51.130Z,4.82
2023-04-09T14:09:17.545Z,4.60
2023-04-09T14:11:43.964Z,4.75
2023-04-09T14:14:10.884Z,4.75
2023-04-09T14:16:37.524Z,4.63
2023-04-09T14:19:04.149Z,4.70
2023-04-09T14:21:30.582Z,4.60
2023-04-09T14:23:57.083Z,4.78
2023-04-09T14:26:24.302Z,4.55
2023-04-09T14:28:51.696Z,4.60
2023-04-09T14:31:21.473Z,4.43
2023-04-09T14:33:48.711Z,4.60
2023-04-09T14:36:15.703Z,4.50
2023-04-09T14:38:42.181Z,4.68
2023-04-09T14:41:08.888Z,4.28
2023-04-09T14:43:35.470Z,4.88
2023-04-09T14:46:02.189Z,4.40
2023-04-09T14:48:28.667Z,4.45
2023-04-09T14:50:55.877Z,4.55
2023-04-09T14:53:23.751Z,4.82
2023-04-09T14:55:50.778Z,4.60
2023-04-09T14:58:17.270Z,4.72
2023-04-09T15:00:45.055Z,5.47
2023-04-09T15:03:12.011Z,5.22
2023-04-09T15:05:38.791Z,5.20
2023-04-09T15:08:05.334Z,5.25
2023-04-09T15:10:31.794Z,5.00
2023-04-09T15:12:58.220Z,5.07
2023-04-09T15:15:24.720Z,5.15
2023-04-09T15:17:51.433Z,5.15
2023-04-09T15:20:18.424Z,4.97
2023-04-09T15:22:44.910Z,5.07
2023-04-09T15:25:14.192Z,4.80
2023-04-09T15:27:40.873Z,4.45
2023-04-09T15:30:07.799Z,5.00
2023-04-09T15:32:34.265Z,4.60
2023-04-09T15:35:00.915Z,4.20
2023-04-09T15:37:27.386Z,4.22
2023-04-09T15:39:53.877Z,3.97
2023-04-09T15:42:22.978Z,4.45
2023-04-09T15:44:49.973Z,4.75
2023-04-09T15:47:16.561Z,4.72
2023-04-09T15:49:43.058Z,4.50
2023-04-09T15:52:09.615Z,4.25
2023-04-09T15:54:36.421Z,4.88
2023-04-09T15:57:04.180Z,4.82
2023-04-09T15:59:30.785Z,4.90
2023-04-09T16:01:57.393Z,4.70
2023-04-09T16:04:23.998Z,4.80
2023-04-09T16:06:50.530Z,5.07
2023-04-09T16:09:16.985Z,4.78
2023-04-09T16:11:43.445Z,4.60
2023-04-09T16:14:09.984Z,4.70
2023-04-09T16:16:36.861Z,4.68
2023-04-09T16:19:03.704Z,4.63
2023-04-09T16:21:30.177Z,4.60
2023-04-09T16:23:56.727Z,5.00
2023-04-09T16:26:23.236Z,4.45
2023-04-09T16:28:49.808Z,4.55
2023-04-09T16:31:16.997Z,4.47
2023-04-09T16:33:43.815Z,4.95
2023-04-09T16:36:10.425Z,4.43
2023-04-09T16:38:37.272Z,4.57
2023-04-09T16:41:03.798Z,4.50
2023-04-09T16:43:30.358Z,4.28
2023-04-09T16:45:57.129Z,4.40
2023-04-09T16:48:24.209Z,4.63
2023-04-09T16:50:51.006Z,4.60
2023-04-09T16:53:17.448Z,4.50
2023-04-09T16:55:44.847Z,4.40
2023-04-09T17:00:38.774Z,4.82
2023-04-09T17:03:05.660Z,4.97
2023-04-09T17:05:32.717Z,4.68
2023-04-09T17:07:59.214Z,4.50
2023-04-09T17:10:27.143Z,4.43
2023-04-09T17:12:53.523Z,4.93
2023-04-09T17:15:20.191Z,5.00
2023-04-09T17:17:47.813Z,4.60
2023-04-09T17:20:14.286Z,4.68
2023-04-09T17:22:40.757Z,4.70
2023-04-09T17:25:07.761Z,4.80
2023-04-09T17:27:34.194Z,4.90
2023-04-09T17:30:00.773Z,4.80
2023-04-09T17:32:27.638Z,4.40
2023-04-09T17:34:54.235Z,4.90
2023-04-09T17:37:21.269Z,4.28
2023-04-09T17:39:47.773Z,4.45
2023-04-09T17:42:14.547Z,4.32
2023-04-09T17:44:42.064Z,4.75
2023-04-09T17:47:08.527Z,4.50
2023-04-09T17:49:35.051Z,4.50
2023-04-09T17:52:01.720Z,4.40
2023-04-09T17:54:32.422Z,4.20
2023-04-09T17:56:58.909Z,4.07
2023-04-09T17:59:25.775Z,3.88
2023-04-09T18:01:55.006Z,4.00
2023-04-09T18:04:22.570Z,4.15
2023-04-09T18:06:49.385Z,3.92
2023-04-09T18:09:15.944Z,3.85
2023-04-09T18:11:42.564Z,3.88
2023-04-09T18:14:09.286Z,3.85
2023-04-09T18:16:38.109Z,3.70
2023-04-09T18:19:07.680Z,3.80
2023-04-09T18:21:37.727Z,3.63
2023-04-09T18:24:04.659Z,3.65
2023-04-09T18:26:31.811Z,3.55
2023-04-09T18:29:00.859Z,3.75
2023-04-09T18:31:27.877Z,3.90
2023-04-09T18:33:54.423Z,3.50
2023-04-09T18:36:20.918Z,3.55
2023-04-09T18:38:47.389Z,3.80
2023-04-09T18:41:21.016Z,3.70
2023-04-09T18:43:48.413Z,3.40
2023-04-09T18:48:43.365Z,3.47
2023-04-09T18:51:10.838Z,3.55
2023-04-09T18:53:37.865Z,3.65
2023-04-09T18:56:04.456Z,4.00
2023-04-09T18:58:31.462Z,3.60
2023-04-09T19:00:58.238Z,3.45
2023-04-09T19:03:25.436Z,3.50
2023-04-09T19:05:53.102Z,3.60
2023-04-09T19:08:19.631Z,3.53
2023-04-09T19:10:47.512Z,3.78
2023-04-09T19:13:14.038Z,3.45
2023-04-09T19:15:40.561Z,3.42
2023-04-09T19:18:07.724Z,3.40
2023-04-09T19:20:34.287Z,3.97
2023-04-09T19:23:01.108Z,3.60
2023-04-09T19:25:28.753Z,3.80
2023-04-09T19:27:55.340Z,3.80
2023-04-09T19:30:22.137Z,3.70
2023-04-09T19:32:48.661Z,3.65
2023-04-09T19:35:15.458Z,3.78
2023-04-09T19:37:42.606Z,3.60
2023-04-09T19:40:09.286Z,4.15
2023-04-09T19:42:35.885Z,3.85
2023-04-09T19:45:02.398Z,4.00
2023-04-09T19:47:29.302Z,3.85
2023-04-09T19:49:55.784Z,4.10
2023-04-09T19:52:22.291Z,3.90
2023-04-09T19:54:53.195Z,4.15
2023-04-09T19:57:19.673Z,4.22
2023-04-09T19:59:48.547Z,4.50
2023-04-09T20:02:16.168Z,4.18
2023-04-09T20:04:43.088Z,4.20
2023-04-09T20:07:09.613Z,4.20
2023-04-09T20:09:36.877Z,3.90
2023-04-09T20:12:06.309Z,4.13
2023-04-09T20:14:32.741Z,3.92
2023-04-09T20:16:59.295Z,3.92
2023-04-09T20:19:25.778Z,4.07
2023-04-09T20:21:52.751Z,3.90
2023-04-09T20:24:19.155Z,4.00
2023-04-09T20:26:46.823Z,3.95
2023-04-09T20:29:13.500Z,4.47
2023-04-09T20:31:40.286Z,3.80
2023-04-09T20:34:07.156Z,4.28
2023-04-09T20:36:34.365Z,4.40
2023-04-09T20:39:02.266Z,4.50
2023-04-09T20:41:28.705Z,4.35
2023-04-09T20:43:55.154Z,4.55
2023-04-09T20:46:21.639Z,4.45
2023-04-09T20:48:48.125Z,4.47
2023-04-09T20:51:14.968Z,5.00
2023-04-09T20:53:41.484Z,4.80
2023-04-09T20:56:09.117Z,4.25
2023-04-09T20:58:35.679Z,4.25
2023-04-09T21:01:04.218Z,4.68
2023-04-09T21:03:31.115Z,4.53
2023-04-09T21:05:57.728Z,4.43
2023-04-09T21:08:24.197Z,4.00
2023-04-09T21:10:50.666Z,3.92
2023-04-09T21:13:17.213Z,4.07
2023-04-09T21:15:43.641Z,4.00
2023-04-09T21:18:10.294Z,3.78
2023-04-09T21:20:36.754Z,3.70
2023-04-09T21:23:03.179Z,3.80
2023-04-09T21:25:29.707Z,3.85
2023-04-09T21:27:56.206Z,3.58
2023-04-09T21:30:22.673Z,4.00
2023-04-09T21:32:49.508Z,3.50
2023-04-09T21:35:16.162Z,3.80
2023-04-09T21:37:42.608Z,3.90
2023-04-09T21:40:09.366Z,3.83
2023-04-09T21:42:35.844Z,3.90
2023-04-09T21:45:02.551Z,3.80
2023-04-09T21:47:29.112Z,3.50
2023-04-09T21:49:55.718Z,3.50
2023-04-09T21:52:22.438Z,3.50
2023-04-09T21:54:48.986Z,4.00
2023-04-09T21:57:15.428Z,4.15
2023-04-09T21:59:42.227Z,4.30
2023-04-09T22:02:09.104Z,3.65
2023-04-09T22:04:35.725Z,3.78
2023-04-09T22:07:02.671Z,3.80
2023-04-09T22:09:29.108Z,3.63
2023-04-09T22:11:55.556Z,3.97
2023-04-09T22:14:22.072Z,3.30
2023-04-09T22:16:48.700Z,3.40
2023-04-09T22:19:15.350Z,3.80
2023-04-09T22:21:41.797Z,3.67
2023-04-09T22:24:08.502Z,3.78
2023-04-09T22:26:34.923Z,3.60
2023-04-09T22:29:04.364Z,3.72
2023-04-09T22:31:32.254Z,3.60
2023-04-09T22:34:04.471Z,3.53
2023-04-09T22:36:40.069Z,3.70
2023-04-09T22:39:06.566Z,3.80
2023-04-09T22:41:33.014Z,3.50
2023-04-09T22:43:59.481Z,3.60
2023-04-09T22:46:26.084Z,3.47
2023-04-09T22:48:52.616Z,3.53
2023-04-09T22:51:19.085Z,4.00
2023-04-09T22:53:46.499Z,3.80
2023-04-09T22:58:40.288Z,3.95
2023-04-09T23:01:06.889Z,3.80
2023-04-09T23:03:33.447Z,6.50
2023-04-09T23:06:00.439Z,7.22
2023-04-09T23:08:26.867Z,7.50
2023-04-09T23:10:54.293Z,7.97
2023-04-09T23:15:47.041Z,8.10
2023-04-09T23:18:13.583Z,8.15
2023-04-09T23:20:39.990Z,8.70
2023-04-09T23:23:06.390Z,8.82
2023-04-09T23:25:32.884Z,8.80
2023-04-09T23:27:59.280Z,9.73
2023-04-09T23:30:25.957Z,9.80
2023-04-09T23:32:57.553Z,9.57
2023-04-09T23:35:24.290Z,9.75
2023-04-09T23:37:50.914Z,10.27
2023-04-09T23:40:20.288Z,9.68
2023-04-09T23:42:48.032Z,10.00
2023-04-09T23:45:14.602Z,9.68
2023-04-09T23:47:41.264Z,10.32
2023-04-09T23:50:08.454Z,10.18
2023-04-09T23:52:35.546Z,10.35
2023-04-09T23:55:02.485Z,9.63
2023-04-09T23:57:29.607Z,10.23
2023-04-09T23:59:57.028Z,9.77
